createdAt,value
2019-01-26T00:00:56.275Z,59.40
2019-01-26T00:03:34.689Z,56.50
2019-01-26T00:06:13.528Z,59.10
2019-01-26T00:08:57.259Z,57.70
2019-01-26T00:11:37.278Z,57.50
2019-01-26T00:14:15.150Z,58.50
2019-01-26T00:16:54.175Z,56.80
2019-01-26T00:19:32.013Z,56.20
2019-01-26T00:22:09.364Z,57.30
2019-01-26T00:24:48.428Z,57.90
2019-01-26T00:27:28.638Z,57.70
2019-01-26T00:30:06.144Z,59.10
2019-01-26T00:32:45.911Z,58.50
2019-01-26T00:35:24.579Z,60.00
2019-01-26T00:38:04.559Z,58.80
2019-01-26T00:40:41.907Z,59.50
2019-01-26T00:43:21.443Z,58.80
2019-01-26T00:46:00.557Z,58.50
2019-01-26T00:48:41.824Z,58.50
2019-01-26T00:51:22.058Z,59.50
2019-01-26T00:54:03.681Z,58.60
2019-01-26T00:56:45.879Z,58.90
2019-01-26T00:59:23.585Z,58.90
2019-01-26T01:02:01.278Z,60.50
2019-01-26T01:04:39.744Z,59.50
2019-01-26T01:07:18.472Z,60.50
2019-01-26T01:10:08.312Z,61.20
2019-01-26T01:12:51.347Z,61.30
2019-01-26T01:15:31.398Z,59.30
2019-01-26T01:18:11.971Z,59.80
2019-01-26T01:20:50.971Z,59.60
2019-01-26T01:23:31.902Z,58.10
2019-01-26T01:26:11.959Z,58.00
2019-01-26T01:28:52.830Z,60.90
2019-01-26T01:31:31.030Z,57.70
2019-01-26T01:34:11.515Z,57.20
2019-01-26T01:36:49.666Z,57.10
2019-01-26T01:39:29.638Z,57.10
2019-01-26T01:42:07.546Z,58.00
2019-01-26T01:44:47.143Z,57.40
2019-01-26T01:47:25.406Z,57.30
2019-01-26T01:50:12.410Z,57.70
2019-01-26T01:52:50.708Z,57.00
2019-01-26T01:55:32.578Z,57.50
2019-01-26T01:58:22.127Z,58.30
2019-01-26T02:01:01.382Z,57.40
2019-01-26T02:03:41.543Z,58.70
2019-01-26T02:06:20.349Z,57.40
2019-01-26T02:09:00.608Z,57.60
2019-01-26T02:11:41.281Z,60.00
2019-01-26T02:14:20.288Z,61.30
2019-01-26T02:17:01.869Z,59.10
2019-01-26T02:19:39.746Z,59.20
2019-01-26T02:22:20.484Z,61.60
2019-01-26T02:24:59.099Z,59.60
2019-01-26T02:27:38.280Z,58.10
2019-01-26T02:30:22.255Z,58.10
2019-01-26T02:33:00.407Z,58.30
2019-01-26T02:35:39.363Z,58.40
2019-01-26T02:38:22.196Z,58.10
2019-01-26T02:41:00.277Z,58.40
2019-01-26T02:43:39.905Z,58.50
2019-01-26T02:46:19.142Z,58.00
2019-01-26T02:48:59.317Z,58.10
2019-01-26T02:51:41.038Z,59.00
2019-01-26T02:54:22.572Z,62.20
2019-01-26T02:57:03.560Z,60.10
2019-01-26T02:59:42.648Z,58.40
2019-01-26T03:02:22.054Z,58.00
2019-01-26T03:05:00.351Z,58.80
2019-01-26T03:07:38.158Z,61.10
2019-01-26T03:10:19.105Z,59.80
2019-01-26T03:12:57.382Z,61.30
2019-01-26T03:15:44.594Z,61.30
2019-01-26T03:18:22.155Z,61.20
2019-01-26T03:21:02.779Z,59.80
2019-01-26T03:23:41.538Z,58.50
2019-01-26T03:26:19.000Z,58.10
2019-01-26T03:28:57.561Z,57.60
2019-01-26T03:31:36.857Z,59.80
2019-01-26T03:34:15.997Z,58.00
2019-01-26T03:36:54.817Z,58.10
2019-01-26T03:39:32.722Z,57.60
2019-01-26T03:42:11.791Z,57.80
2019-01-26T03:44:49.363Z,59.10
2019-01-26T03:47:29.585Z,58.00
2019-01-26T03:50:10.879Z,59.90
2019-01-26T03:52:49.304Z,59.80
2019-01-26T03:55:30.334Z,61.50
2019-01-26T03:58:08.680Z,62.20
2019-01-26T04:00:48.705Z,58.70
2019-01-26T04:03:28.702Z,57.80
2019-01-26T04:06:08.152Z,57.50
2019-01-26T04:08:45.693Z,57.80
2019-01-26T04:11:24.895Z,57.60
2019-01-26T04:14:03.712Z,58.40
2019-01-26T04:16:43.254Z,57.90
2019-01-26T04:19:22.521Z,58.00
2019-01-26T04:21:59.930Z,58.60
2019-01-26T04:24:37.549Z,57.10
2019-01-26T04:27:16.662Z,57.30
2019-01-26T04:29:54.638Z,57.30
2019-01-26T04:32:34.772Z,57.00
2019-01-26T04:35:18.303Z,58.70
2019-01-26T04:37:59.655Z,57.50
2019-01-26T04:40:42.360Z,58.00
2019-01-26T04:43:24.113Z,59.60
2019-01-26T04:46:03.594Z,58.60
2019-01-26T04:48:43.067Z,57.60
2019-01-26T04:51:22.862Z,57.40
2019-01-26T04:54:03.340Z,57.20
2019-01-26T04:56:43.000Z,59.20
2019-01-26T04:59:22.335Z,57.90
2019-01-26T05:02:01.432Z,58.70
2019-01-26T05:04:41.784Z,59.90
2019-01-26T05:07:24.614Z,60.50
2019-01-26T05:10:04.106Z,57.90
2019-01-26T05:12:45.194Z,58.20
2019-01-26T05:15:30.426Z,60.80
2019-01-26T05:18:11.517Z,59.30
2019-01-26T05:20:55.533Z,58.90
2019-01-26T05:23:33.124Z,58.40
2019-01-26T05:26:15.734Z,57.10
2019-01-26T05:28:53.483Z,58.30
2019-01-26T05:31:32.444Z,57.10
2019-01-26T05:34:16.081Z,57.20
2019-01-26T05:37:01.684Z,59.80
2019-01-26T05:39:44.550Z,60.00
2019-01-26T05:42:50.861Z,59.00
2019-01-26T05:45:54.820Z,58.00
2019-01-26T05:49:13.895Z,57.40
2019-01-26T05:51:52.055Z,58.50
2019-01-26T05:54:33.581Z,60.60
2019-01-26T05:57:12.529Z,58.40
2019-01-26T05:59:51.114Z,59.00
2019-01-26T06:02:32.363Z,59.90
2019-01-26T06:05:11.337Z,59.30
2019-01-26T06:07:50.160Z,59.90
2019-01-26T06:10:31.899Z,59.00
2019-01-26T06:13:11.356Z,58.00
2019-01-26T06:15:49.321Z,59.70
2019-01-26T06:18:38.098Z,60.30
2019-01-26T06:21:18.742Z,59.70
2019-01-26T06:24:04.828Z,58.40
2019-01-26T06:26:49.741Z,58.20
2019-01-26T06:29:32.853Z,58.50
2019-01-26T06:32:12.988Z,58.80
2019-01-26T06:34:55.419Z,60.50
2019-01-26T06:37:34.090Z,58.80
2019-01-26T06:40:14.989Z,58.70
2019-01-26T06:42:56.260Z,60.90
2019-01-26T06:45:37.830Z,58.90
2019-01-26T06:48:16.173Z,58.60
2019-01-26T06:50:55.257Z,58.10
2019-01-26T06:53:39.178Z,58.00
2019-01-26T06:56:20.355Z,57.60
2019-01-26T06:59:00.112Z,58.80
2019-01-26T07:01:38.139Z,58.20
2019-01-26T07:04:20.364Z,58.20
2019-01-26T07:07:09.504Z,58.50
2019-01-26T07:09:56.418Z,58.60
2019-01-26T07:12:36.000Z,58.00
2019-01-26T07:15:15.432Z,58.40
2019-01-26T07:17:57.873Z,57.90
2019-01-26T07:20:43.297Z,57.80
2019-01-26T07:26:57.834Z,58.30
2019-01-26T07:29:47.023Z,58.30
2019-01-26T07:32:26.863Z,58.10
2019-01-26T07:35:07.120Z,58.40
2019-01-26T07:37:51.301Z,58.30
2019-01-26T07:40:29.599Z,58.10
2019-01-26T07:43:08.588Z,59.50
2019-01-26T07:45:51.865Z,59.20
2019-01-26T07:48:32.902Z,58.50
2019-01-26T07:51:13.115Z,58.50
2019-01-26T07:53:51.233Z,59.50
2019-01-26T07:56:33.717Z,58.00
2019-01-26T07:59:14.916Z,58.60
2019-01-26T08:01:59.671Z,58.60
2019-01-26T08:05:00.414Z,60.20
2019-01-26T08:07:43.821Z,60.70
2019-01-26T08:10:25.337Z,59.00
2019-01-26T08:13:03.174Z,59.70
2019-01-26T08:15:44.502Z,58.70
2019-01-26T08:18:26.026Z,58.20
2019-01-26T08:21:04.578Z,59.10
2019-01-26T08:23:44.004Z,58.40
2019-01-26T08:26:25.203Z,59.10
2019-01-26T08:29:10.142Z,57.80
2019-01-26T08:31:50.455Z,58.40
2019-01-26T08:34:29.733Z,57.70
2019-01-26T08:37:08.471Z,57.50
2019-01-26T08:39:46.722Z,58.50
2019-01-26T08:42:27.388Z,58.00
2019-01-26T08:45:07.509Z,58.40
2019-01-26T08:47:45.286Z,59.10
2019-01-26T08:50:29.726Z,58.30
2019-01-26T08:53:11.194Z,59.30
2019-01-26T08:55:52.893Z,58.60
2019-01-26T08:58:33.264Z,58.80
2019-01-26T09:01:12.435Z,58.90
2019-01-26T09:04:02.916Z,58.10
2019-01-26T09:06:44.028Z,58.70
2019-01-26T09:09:23.525Z,58.70
2019-01-26T09:12:05.412Z,58.40
2019-01-26T09:14:48.737Z,58.10
2019-01-26T09:17:28.855Z,59.20
2019-01-26T09:20:12.565Z,58.70
2019-01-26T09:22:51.165Z,58.60
2019-01-26T09:25:28.676Z,59.80
2019-01-26T09:28:09.104Z,58.70
2019-01-26T09:30:49.394Z,59.30
2019-01-26T09:33:29.890Z,59.00
2019-01-26T09:36:13.871Z,58.20
2019-01-26T09:38:52.976Z,58.10
2019-01-26T09:41:36.426Z,58.40
2019-01-26T09:44:14.568Z,58.70
2019-01-26T09:46:52.419Z,58.40
2019-01-26T09:49:38.535Z,58.20
2019-01-26T09:52:20.058Z,58.60
2019-01-26T09:54:59.188Z,58.90
2019-01-26T09:57:37.432Z,58.80
2019-01-26T10:00:20.264Z,59.30
2019-01-26T10:02:57.875Z,59.00
2019-01-26T10:05:40.578Z,58.90
2019-01-26T10:08:22.895Z,59.80
2019-01-26T10:11:02.577Z,59.50
2019-01-26T10:13:41.708Z,59.60
2019-01-26T10:16:25.554Z,59.70
2019-01-26T10:19:07.512Z,60.50
2019-01-26T10:21:47.074Z,62.00
2019-01-26T10:24:24.912Z,59.90
2019-01-26T10:27:02.746Z,61.30
2019-01-26T10:29:43.367Z,60.80
2019-01-26T10:32:21.287Z,61.80
2019-01-26T10:34:59.218Z,62.00
2019-01-26T10:37:40.468Z,60.60
2019-01-26T10:40:35.608Z,61.40
2019-01-26T10:43:14.474Z,61.40
2019-01-26T10:45:55.143Z,61.80
2019-01-26T10:48:32.559Z,60.90
2019-01-26T10:51:14.599Z,60.80
2019-01-26T10:53:52.211Z,61.80
2019-01-26T10:56:30.496Z,61.80
2019-01-26T10:59:09.712Z,62.50
2019-01-26T11:01:47.460Z,63.60
2019-01-26T11:04:28.821Z,62.10
2019-01-26T11:07:08.390Z,62.40
2019-01-26T11:09:49.707Z,63.60
2019-01-26T11:12:37.054Z,61.60
2019-01-26T11:15:17.766Z,61.60
2019-01-26T11:17:57.496Z,61.40
2019-01-26T11:20:38.596Z,62.90
2019-01-26T11:23:18.508Z,62.70
2019-01-26T11:25:58.546Z,62.30
2019-01-26T11:28:36.267Z,61.80
2019-01-26T11:31:14.836Z,61.40
2019-01-26T11:33:56.990Z,62.30
2019-01-26T11:36:37.723Z,62.00
2019-01-26T11:39:18.138Z,62.70
2019-01-26T11:41:57.945Z,63.70
2019-01-26T11:44:38.156Z,62.20
2019-01-26T11:47:19.917Z,62.20
2019-01-26T11:50:03.024Z,62.10
2019-01-26T11:52:42.393Z,62.40
2019-01-26T11:55:32.279Z,62.90
2019-01-26T11:58:11.364Z,63.10
2019-01-26T12:01:09.834Z,63.00
2019-01-26T12:04:20.355Z,63.00
2019-01-26T12:07:15.619Z,63.70
2019-01-26T12:09:58.002Z,63.40
2019-01-26T12:12:39.923Z,62.50
2019-01-26T12:15:21.207Z,62.60
2019-01-26T12:18:03.815Z,62.90
2019-01-26T12:20:42.496Z,63.30
2019-01-26T12:23:25.795Z,63.30
2019-01-26T12:26:07.296Z,63.70
2019-01-26T12:28:49.148Z,63.40
2019-01-26T12:31:30.388Z,63.10
2019-01-26T12:34:12.664Z,64.00
2019-01-26T12:36:52.455Z,63.70
2019-01-26T12:39:44.171Z,63.50
2019-01-26T12:42:32.717Z,62.70
2019-01-26T12:45:22.110Z,62.70
2019-01-26T12:55:06.659Z,63.10
2019-01-26T13:00:07.630Z,62.90
2019-01-26T13:01:57.691Z,63.10
2019-01-26T13:04:59.299Z,64.30
2019-01-26T13:08:13.516Z,63.90
2019-01-26T13:11:36.282Z,63.50
2019-01-26T13:14:54.042Z,64.00
2019-01-26T13:25:37.702Z,64.20
2019-01-26T13:28:26.689Z,63.60
2019-01-26T13:31:10.662Z,63.60
2019-01-26T13:33:56.250Z,63.80
2019-01-26T13:36:39.701Z,64.10
2019-01-26T13:39:24.782Z,64.00
2019-01-26T13:42:05.517Z,64.50
2019-01-26T13:44:49.138Z,63.60
2019-01-26T13:47:29.781Z,63.70
2019-01-26T13:50:12.582Z,63.90
2019-01-26T13:52:52.316Z,63.90
2019-01-26T13:55:35.451Z,64.00
2019-01-26T13:58:16.494Z,64.40
2019-01-26T14:01:02.651Z,64.10
2019-01-26T14:03:46.565Z,64.20
2019-01-26T14:06:30.591Z,64.60
2019-01-26T14:09:13.036Z,64.10
2019-01-26T14:11:55.305Z,64.10
2019-01-26T14:14:37.006Z,64.00
2019-01-26T14:17:42.303Z,64.00
2019-01-26T14:20:39.256Z,63.90
2019-01-26T14:23:25.088Z,64.10
2019-01-26T14:26:18.340Z,64.50
2019-01-26T14:29:09.577Z,64.30
2019-01-26T14:31:53.007Z,65.00
2019-01-26T14:34:39.227Z,64.60
2019-01-26T14:37:20.057Z,64.40
2019-01-26T14:40:02.295Z,64.60
2019-01-26T14:42:44.974Z,64.40
2019-01-26T14:45:29.245Z,64.40
2019-01-26T14:48:10.924Z,64.30
2019-01-26T14:50:56.588Z,64.30
2019-01-26T14:53:36.234Z,64.20
2019-01-26T14:56:19.775Z,64.40
2019-01-26T14:59:04.764Z,64.50
2019-01-26T15:01:46.639Z,64.80
2019-01-26T15:04:36.369Z,64.70
2019-01-26T15:07:16.888Z,65.10
2019-01-26T15:10:01.110Z,65.00
2019-01-26T15:12:44.048Z,64.80
2019-01-26T15:15:29.465Z,64.80
2019-01-26T15:18:14.202Z,64.70
2019-01-26T15:21:03.354Z,64.80
2019-01-26T15:23:46.029Z,64.80
2019-01-26T15:26:32.406Z,64.90
2019-01-26T15:29:17.860Z,65.00
2019-01-26T15:32:02.442Z,65.10
2019-01-26T15:34:43.359Z,65.00
2019-01-26T15:37:20.946Z,65.00
2019-01-26T15:40:05.994Z,65.00
2019-01-26T15:42:52.254Z,64.80
2019-01-26T15:45:37.172Z,64.80
2019-01-26T15:48:17.793Z,64.80
2019-01-26T15:51:08.485Z,65.00
2019-01-26T15:54:05.285Z,65.10
2019-01-26T15:56:45.282Z,65.10
2019-01-26T15:59:29.849Z,65.10
2019-01-26T16:02:51.639Z,65.10
2019-01-26T16:06:09.079Z,65.00
2019-01-26T16:12:21.586Z,65.20
2019-01-26T16:18:20.789Z,65.30
2019-01-26T16:21:18.937Z,65.50
2019-01-26T16:24:08.956Z,65.50
2019-01-26T16:26:55.144Z,65.50
2019-01-26T16:29:35.299Z,65.70
2019-01-26T16:32:20.251Z,65.70
2019-01-26T16:35:05.549Z,65.70
2019-01-26T16:37:52.268Z,65.70
2019-01-26T16:40:42.488Z,66.00
2019-01-26T16:43:32.154Z,65.80
2019-01-26T16:46:24.446Z,65.70
2019-01-26T16:49:12.711Z,65.80
2019-01-26T16:51:52.468Z,65.80
2019-01-26T16:54:32.548Z,65.80
2019-01-26T16:57:17.214Z,65.80
2019-01-26T17:00:00.242Z,66.00
2019-01-26T17:02:41.029Z,65.90
2019-01-26T17:05:25.936Z,66.10
2019-01-26T17:08:06.145Z,66.10
2019-01-26T17:10:54.969Z,66.20
2019-01-26T17:13:40.450Z,66.20
2019-01-26T17:16:20.236Z,66.40
2019-01-26T17:19:14.611Z,66.40
2019-01-26T17:22:03.094Z,66.40
2019-01-26T17:24:41.254Z,66.70
2019-01-26T17:27:25.015Z,66.70
2019-01-26T17:30:06.225Z,66.90
2019-01-26T17:32:47.067Z,67.30
2019-01-26T17:35:29.340Z,67.40
2019-01-26T17:38:09.620Z,67.50
2019-01-26T17:40:54.351Z,67.40
2019-01-26T17:43:31.234Z,67.50
2019-01-26T17:46:11.546Z,67.60
2019-01-26T17:48:53.930Z,67.90
2019-01-26T17:51:33.924Z,67.80
2019-01-26T17:54:14.367Z,68.00
2019-01-26T17:56:52.936Z,68.10
2019-01-26T17:59:32.945Z,68.30
2019-01-26T18:02:14.154Z,68.30
2019-01-26T18:04:55.334Z,68.30
2019-01-26T18:07:38.298Z,68.40
2019-01-26T18:10:20.982Z,68.60
2019-01-26T18:12:58.414Z,68.60
2019-01-26T18:15:40.204Z,69.00
2019-01-26T18:18:21.399Z,69.00
2019-01-26T18:21:01.478Z,69.00
2019-01-26T18:23:38.560Z,68.80
2019-01-26T18:26:17.084Z,68.80
2019-01-26T18:28:58.222Z,68.80
2019-01-26T18:31:34.770Z,68.70
2019-01-26T18:34:15.968Z,68.80
2019-01-26T18:36:54.141Z,68.80
2019-01-26T18:39:32.431Z,68.90
2019-01-26T18:42:12.071Z,68.90
2019-01-26T18:44:51.366Z,69.00
2019-01-26T18:47:31.655Z,69.00
2019-01-26T18:50:11.830Z,68.90
2019-01-26T18:52:51.955Z,68.70
2019-01-26T18:55:29.948Z,69.00
2019-01-26T18:58:07.616Z,68.80
2019-01-26T19:00:54.315Z,69.00
2019-01-26T19:03:58.872Z,68.80
2019-01-26T19:06:36.574Z,69.20
2019-01-26T19:09:16.111Z,69.20
2019-01-26T19:11:56.363Z,68.90
2019-01-26T19:14:36.115Z,69.80
2019-01-26T19:17:14.356Z,69.10
2019-01-26T19:19:53.243Z,69.10
2019-01-26T19:22:32.313Z,69.10
2019-01-26T19:25:10.192Z,69.10
2019-01-26T19:27:49.684Z,69.20
2019-01-26T19:30:30.198Z,69.40
2019-01-26T19:33:09.877Z,69.40
2019-01-26T19:35:47.348Z,69.60
2019-01-26T19:38:24.759Z,69.50
2019-01-26T19:41:03.049Z,69.80
2019-01-26T19:43:40.860Z,69.70
2019-01-26T19:46:18.350Z,69.80
2019-01-26T19:48:57.720Z,70.00
2019-01-26T19:51:36.430Z,69.80
2019-01-26T19:54:13.130Z,69.80
2019-01-26T19:56:50.381Z,69.90
2019-01-26T19:59:33.443Z,69.70
2019-01-26T20:02:14.623Z,69.90
2019-01-26T20:04:52.258Z,69.90
2019-01-26T20:07:31.272Z,69.80
2019-01-26T20:10:09.268Z,69.80
2019-01-26T20:12:47.222Z,69.80
2019-01-26T20:15:24.719Z,69.90
2019-01-26T20:18:01.421Z,69.90
2019-01-26T20:20:39.759Z,70.10
2019-01-26T20:23:17.432Z,70.00
2019-01-26T20:25:56.138Z,70.10
2019-01-26T20:28:36.077Z,70.30
2019-01-26T20:31:13.936Z,70.50
2019-01-26T20:33:54.335Z,70.50
2019-01-26T20:36:34.051Z,70.80
2019-01-26T20:39:15.438Z,70.90
2019-01-26T20:41:52.489Z,71.10
2019-01-26T20:44:31.193Z,71.20
2019-01-26T20:47:10.328Z,71.30
2019-01-26T20:49:49.411Z,71.40
2019-01-26T20:52:28.006Z,71.80
2019-01-26T20:55:06.331Z,72.00
2019-01-26T20:57:46.596Z,72.10
2019-01-26T21:00:31.941Z,72.10
2019-01-26T21:03:09.401Z,72.10
2019-01-26T21:05:49.987Z,72.30
2019-01-26T21:08:32.856Z,72.50
2019-01-26T21:11:11.485Z,72.50
2019-01-26T21:13:49.503Z,72.60
2019-01-26T21:16:27.361Z,72.70
2019-01-26T21:19:06.508Z,72.70
2019-01-26T21:21:43.501Z,72.70
2019-01-26T21:24:20.823Z,72.60
2019-01-26T21:26:58.596Z,72.90
2019-01-26T21:29:36.201Z,72.70
2019-01-26T21:32:15.712Z,72.80
2019-01-26T21:34:55.918Z,72.70
2019-01-26T21:37:34.892Z,72.70
2019-01-26T21:40:15.143Z,72.70
2019-01-26T21:42:54.277Z,72.80
2019-01-26T21:45:33.740Z,72.70
2019-01-26T21:48:10.283Z,72.80
2019-01-26T21:50:48.450Z,72.90
2019-01-26T21:53:29.931Z,72.90
2019-01-26T21:56:08.204Z,72.90
2019-01-26T21:58:47.659Z,72.80
2019-01-26T22:01:27.989Z,72.60
2019-01-26T22:04:07.127Z,72.70
2019-01-26T22:06:47.498Z,72.60
2019-01-26T22:09:26.661Z,72.50
2019-01-26T22:12:05.184Z,72.70
2019-01-26T22:14:44.924Z,73.30
2019-01-26T22:17:23.548Z,72.30
2019-01-26T22:20:00.935Z,72.30
2019-01-26T22:22:40.487Z,72.40
2019-01-26T22:25:20.858Z,72.40
2019-01-26T22:28:01.469Z,72.40
2019-01-26T22:30:40.618Z,72.40
2019-01-26T22:33:22.859Z,72.50
2019-01-26T22:36:02.390Z,72.70
2019-01-26T22:38:41.431Z,72.80
2019-01-26T22:41:20.064Z,72.70
2019-01-26T22:43:58.431Z,72.80
2019-01-26T22:46:39.076Z,72.90
2019-01-26T22:49:16.352Z,72.90
2019-01-26T22:51:56.008Z,72.90
2019-01-26T22:54:36.466Z,72.70
2019-01-26T22:57:16.774Z,73.50
2019-01-26T22:59:55.393Z,72.70
2019-01-26T23:02:33.665Z,72.80
2019-01-26T23:05:44.597Z,72.70
2019-01-26T23:08:30.596Z,72.50
2019-01-26T23:11:35.749Z,72.60
2019-01-26T23:14:31.206Z,72.80
2019-01-26T23:17:47.376Z,73.80
2019-01-26T23:20:32.357Z,72.90
2019-01-26T23:23:27.633Z,73.10
2019-01-26T23:26:33.966Z,73.70
2019-01-26T23:29:52.570Z,72.60
2019-01-26T23:32:30.477Z,73.30
2019-01-26T23:35:08.061Z,73.00
2019-01-26T23:37:45.097Z,72.40
2019-01-26T23:40:22.161Z,72.50
2019-01-26T23:43:00.004Z,72.90
2019-01-26T23:45:40.154Z,73.90
2019-01-26T23:48:18.016Z,75.40
2019-01-26T23:50:56.120Z,77.40
2019-01-26T23:53:36.604Z,76.90
2019-01-26T23:56:17.300Z,76.70
2019-01-26T23:58:55.411Z,75.30
